X  Luk Metar data     EKYT Aalborg Airport
Temperatur
8°C Temperatur
7°C Dugpunkt
93% Fugtighed



Vind
5 M/S
12 MPT
19 KM/T
10 KNOB



180°
Syd
Nuværende forhold

Mest skyet Mest skyet
Tryk 1021.92 (hPa) - 30.18 (inHg)
Sigt 6.2 (mil) - 10 (km)
Lufthavn
Lufthavnskode EKYT

Lokation: Aalborg Airport
Afstand: 54 (km)

Metar:
EKYT 240320Z AUTO 18010KT 9999 BKN047/// 08/07 Q1022

Tid: 24-10-2021 05:20 CEST